< < Back
Terminal Aerodrome Forecast


Current Version              Previous Versions:   1  2  3  4  5  6  7  8  9  

Terminal Aerodrome Forecast

542
FTUS42 KGSP 290500
TAFHKY
TAF
KHKY 290521Z 2906/3006 33004KT P6SM FEW090
     FM291600 35004KT P6SM FEW060=



Latest METAR

402
SAUS70 KWBC 291256
MTRHKY
METAR KHKY 291253Z AUTO 00000KT 10SM CLR 19/13 A3000 RMK AO2 SLP140
T01940133


USA.gov is the U.S. government's official web portal to all federal, state and local government web resources and services.